sensor_id;sensor_type;location;lat;lon;timestamp;P1;durP1;ratioP1;P2;durP2;ratioP2
8247;SDS011;4164;49.844;8.830;2022-12-16T00:00:01;37.90;;;17.17;;
8247;SDS011;4164;49.844;8.830;2022-12-16T00:02:28;42.17;;;16.53;;
8247;SDS011;4164;49.844;8.830;2022-12-16T00:04:54;37.00;;;15.37;;
8247;SDS011;4164;49.844;8.830;2022-12-16T00:07:21;33.23;;;15.17;;
8247;SDS011;4164;49.844;8.830;2022-12-16T00:09:47;40.90;;;15.27;;
8247;SDS011;4164;49.844;8.830;2022-12-16T00:12:12;32.83;;;14.77;;
8247;SDS011;4164;49.844;8.830;2022-12-16T00:14:38;38.70;;;16.50;;
8247;SDS011;4164;49.844;8.830;2022-12-16T00:17:03;30.03;;;15.23;;
8247;SDS011;4164;49.844;8.830;2022-12-16T00:19:29;35.53;;;14.43;;
8247;SDS011;4164;49.844;8.830;2022-12-16T00:21:55;30.70;;;14.47;;
8247;SDS011;4164;49.844;8.830;2022-12-16T00:24:21;32.20;;;14.23;;
8247;SDS011;4164;49.844;8.830;2022-12-16T00:26:47;31.53;;;14.43;;
8247;SDS011;4164;49.844;8.830;2022-12-16T00:29:12;33.90;;;15.13;;
8247;SDS011;4164;49.844;8.830;2022-12-16T00:31:38;30.47;;;14.83;;
8247;SDS011;4164;49.844;8.830;2022-12-16T00:34:04;32.13;;;14.70;;
8247;SDS011;4164;49.844;8.830;2022-12-16T00:36:29;29.23;;;13.40;;
8247;SDS011;4164;49.844;8.830;2022-12-16T00:38:55;62.20;;;16.03;;
8247;SDS011;4164;49.844;8.830;2022-12-16T00:41:20;26.27;;;12.67;;
8247;SDS011;4164;49.844;8.830;2022-12-16T00:43:46;30.07;;;14.53;;
8247;SDS011;4164;49.844;8.830;2022-12-16T00:46:12;30.67;;;13.70;;
8247;SDS011;4164;49.844;8.830;2022-12-16T00:48:37;26.43;;;13.10;;
8247;SDS011;4164;49.844;8.830;2022-12-16T00:51:03;25.30;;;12.93;;
8247;SDS011;4164;49.844;8.830;2022-12-16T00:53:29;31.23;;;13.43;;
8247;SDS011;4164;49.844;8.830;2022-12-16T00:56:02;27.43;;;13.17;;
8247;SDS011;4164;49.844;8.830;2022-12-16T00:58:30;36.23;;;13.33;;
8247;SDS011;4164;49.844;8.830;2022-12-16T01:00:56;28.77;;;13.80;;
8247;SDS011;4164;49.844;8.830;2022-12-16T01:03:21;30.53;;;12.87;;
8247;SDS011;4164;49.844;8.830;2022-12-16T01:05:47;27.87;;;11.97;;
8247;SDS011;4164;49.844;8.830;2022-12-16T01:08:12;24.60;;;11.67;;
8247;SDS011;4164;49.844;8.830;2022-12-16T01:10:38;70.70;;;17.03;;
8247;SDS011;4164;49.844;8.830;2022-12-16T01:13:03;26.33;;;11.93;;
8247;SDS011;4164;49.844;8.830;2022-12-16T01:15:29;30.27;;;13.50;;
8247;SDS011;4164;49.844;8.830;2022-12-16T01:17:54;26.77;;;12.53;;
8247;SDS011;4164;49.844;8.830;2022-12-16T01:20:20;28.90;;;13.30;;
8247;SDS011;4164;49.844;8.830;2022-12-16T01:22:45;27.47;;;12.87;;
8247;SDS011;4164;49.844;8.830;2022-12-16T01:25:11;31.90;;;14.37;;
8247;SDS011;4164;49.844;8.830;2022-12-16T01:27:37;29.67;;;13.70;;
8247;SDS011;4164;49.844;8.830;2022-12-16T01:30:03;25.73;;;13.50;;
8247;SDS011;4164;49.844;8.830;2022-12-16T01:32:29;25.97;;;12.10;;
8247;SDS011;4164;49.844;8.830;2022-12-16T01:34:55;27.63;;;12.07;;
8247;SDS011;4164;49.844;8.830;2022-12-16T01:37:21;33.37;;;12.63;;
8247;SDS011;4164;49.844;8.830;2022-12-16T01:39:47;31.40;;;13.60;;
8247;SDS011;4164;49.844;8.830;2022-12-16T01:42:14;28.73;;;12.43;;
8247;SDS011;4164;49.844;8.830;2022-12-16T01:44:42;28.00;;;12.03;;
8247;SDS011;4164;49.844;8.830;2022-12-16T01:47:11;24.97;;;12.10;;
8247;SDS011;4164;49.844;8.830;2022-12-16T01:49:41;29.50;;;12.10;;
8247;SDS011;4164;49.844;8.830;2022-12-16T01:52:13;30.80;;;12.23;;
8247;SDS011;4164;49.844;8.830;2022-12-16T01:54:49;21.60;;;10.80;;
8247;SDS011;4164;49.844;8.830;2022-12-16T01:57:25;32.03;;;12.13;;
8247;SDS011;4164;49.844;8.830;2022-12-16T01:59:57;22.03;;;11.03;;
8247;SDS011;4164;49.844;8.830;2022-12-16T02:02:25;29.40;;;12.10;;
8247;SDS011;4164;49.844;8.830;2022-12-16T02:04:51;26.33;;;11.87;;
8247;SDS011;4164;49.844;8.830;2022-12-16T02:07:36;26.47;;;11.83;;
8247;SDS011;4164;49.844;8.830;2022-12-16T02:10:02;24.30;;;11.63;;
8247;SDS011;4164;49.844;8.830;2022-12-16T02:18:08;34.60;;;13.10;;
8247;SDS011;4164;49.844;8.830;2022-12-16T02:29:17;25.67;;;11.83;;
8247;SDS011;4164;49.844;8.830;2022-12-16T02:34:48;26.57;;;12.07;;
8247;SDS011;4164;49.844;8.830;2022-12-16T02:37:40;24.00;;;11.50;;
8247;SDS011;4164;49.844;8.830;2022-12-16T02:40:15;23.53;;;11.77;;
8247;SDS011;4164;49.844;8.830;2022-12-16T02:43:06;41.23;;;13.30;;
8247;SDS011;4164;49.844;8.830;2022-12-16T02:45:41;30.97;;;12.33;;
8247;SDS011;4164;49.844;8.830;2022-12-16T02:48:07;26.97;;;11.10;;
8247;SDS011;4164;49.844;8.830;2022-12-16T02:50:39;34.60;;;13.57;;
8247;SDS011;4164;49.844;8.830;2022-12-16T02:53:09;22.77;;;10.87;;
8247;SDS011;4164;49.844;8.830;2022-12-16T02:55:42;24.70;;;11.17;;
8247;SDS011;4164;49.844;8.830;2022-12-16T03:01:28;27.73;;;12.00;;
8247;SDS011;4164;49.844;8.830;2022-12-16T03:04:01;27.00;;;12.53;;
8247;SDS011;4164;49.844;8.830;2022-12-16T03:06:46;27.53;;;11.07;;
8247;SDS011;4164;49.844;8.830;2022-12-16T03:09:14;24.67;;;11.23;;
8247;SDS011;4164;49.844;8.830;2022-12-16T03:11:47;32.20;;;12.40;;
8247;SDS011;4164;49.844;8.830;2022-12-16T03:14:14;21.37;;;10.53;;
8247;SDS011;4164;49.844;8.830;2022-12-16T03:16:42;23.90;;;10.57;;
8247;SDS011;4164;49.844;8.830;2022-12-16T03:19:09;25.83;;;11.03;;
8247;SDS011;4164;49.844;8.830;2022-12-16T03:21:44;25.83;;;12.03;;
8247;SDS011;4164;49.844;8.830;2022-12-16T03:24:18;27.70;;;10.87;;
8247;SDS011;4164;49.844;8.830;2022-12-16T03:29:26;25.47;;;11.07;;
8247;SDS011;4164;49.844;8.830;2022-12-16T03:32:04;22.93;;;10.30;;
8247;SDS011;4164;49.844;8.830;2022-12-16T03:34:45;22.10;;;9.87;;
8247;SDS011;4164;49.844;8.830;2022-12-16T03:37:16;27.40;;;10.70;;
8247;SDS011;4164;49.844;8.830;2022-12-16T03:39:47;29.67;;;12.50;;
8247;SDS011;4164;49.844;8.830;2022-12-16T03:42:16;23.83;;;11.23;;
8247;SDS011;4164;49.844;8.830;2022-12-16T03:44:43;26.40;;;11.13;;
8247;SDS011;4164;49.844;8.830;2022-12-16T03:47:10;42.23;;;12.03;;
8247;SDS011;4164;49.844;8.830;2022-12-16T03:49:36;27.37;;;10.67;;
8247;SDS011;4164;49.844;8.830;2022-12-16T03:52:03;27.40;;;12.03;;
8247;SDS011;4164;49.844;8.830;2022-12-16T03:54:29;53.17;;;12.23;;
8247;SDS011;4164;49.844;8.830;2022-12-16T03:56:54;30.47;;;12.67;;
8247;SDS011;4164;49.844;8.830;2022-12-16T03:59:20;24.60;;;10.50;;
8247;SDS011;4164;49.844;8.830;2022-12-16T04:01:46;25.23;;;10.13;;
8247;SDS011;4164;49.844;8.830;2022-12-16T04:04:11;28.67;;;12.13;;
8247;SDS011;4164;49.844;8.830;2022-12-16T04:06:37;32.33;;;12.53;;
8247;SDS011;4164;49.844;8.830;2022-12-16T04:09:02;41.47;;;13.93;;
8247;SDS011;4164;49.844;8.830;2022-12-16T04:11:28;26.43;;;10.63;;
8247;SDS011;4164;49.844;8.830;2022-12-16T04:14:13;32.00;;;11.87;;
8247;SDS011;4164;49.844;8.830;2022-12-16T04:16:57;32.17;;;12.57;;
8247;SDS011;4164;49.844;8.830;2022-12-16T04:19:42;28.47;;;12.53;;
8247;SDS011;4164;49.844;8.830;2022-12-16T04:22:32;33.20;;;12.93;;
8247;SDS011;4164;49.844;8.830;2022-12-16T04:25:22;25.53;;;11.50;;
8247;SDS011;4164;49.844;8.830;2022-12-16T04:27:51;30.30;;;12.37;;
8247;SDS011;4164;49.844;8.830;2022-12-16T04:30:17;23.90;;;10.40;;
8247;SDS011;4164;49.844;8.830;2022-12-16T04:33:06;24.87;;;10.00;;
8247;SDS011;4164;49.844;8.830;2022-12-16T04:35:53;25.47;;;10.63;;
8247;SDS011;4164;49.844;8.830;2022-12-16T04:38:37;29.87;;;12.60;;
8247;SDS011;4164;49.844;8.830;2022-12-16T04:41:21;45.13;;;19.77;;
8247;SDS011;4164;49.844;8.830;2022-12-16T04:44:05;51.80;;;20.30;;
8247;SDS011;4164;49.844;8.830;2022-12-16T04:46:49;36.90;;;16.20;;
8247;SDS011;4164;49.844;8.830;2022-12-16T04:49:33;30.27;;;12.63;;
8247;SDS011;4164;49.844;8.830;2022-12-16T04:52:17;26.93;;;10.87;;
8247;SDS011;4164;49.844;8.830;2022-12-16T04:55:01;25.07;;;11.93;;
8247;SDS011;4164;49.844;8.830;2022-12-16T04:57:52;42.50;;;14.87;;
8247;SDS011;4164;49.844;8.830;2022-12-16T05:00:37;146.87;;;39.63;;
8247;SDS011;4164;49.844;8.830;2022-12-16T05:03:22;47.93;;;18.47;;
8247;SDS011;4164;49.844;8.830;2022-12-16T05:06:06;35.20;;;14.63;;
8247;SDS011;4164;49.844;8.830;2022-12-16T05:08:51;44.60;;;17.57;;
8247;SDS011;4164;49.844;8.830;2022-12-16T05:11:35;58.07;;;19.43;;
8247;SDS011;4164;49.844;8.830;2022-12-16T05:14:19;29.30;;;13.83;;
8247;SDS011;4164;49.844;8.830;2022-12-16T05:17:03;35.87;;;15.93;;
8247;SDS011;4164;49.844;8.830;2022-12-16T05:19:47;30.60;;;13.17;;
8247;SDS011;4164;49.844;8.830;2022-12-16T05:22:32;29.03;;;14.23;;
8247;SDS011;4164;49.844;8.830;2022-12-16T05:25:16;33.37;;;13.23;;
8247;SDS011;4164;49.844;8.830;2022-12-16T05:28:00;26.53;;;12.37;;
8247;SDS011;4164;49.844;8.830;2022-12-16T05:30:44;26.80;;;10.77;;
8247;SDS011;4164;49.844;8.830;2022-12-16T05:33:29;21.63;;;9.90;;
8247;SDS011;4164;49.844;8.830;2022-12-16T05:36:13;26.13;;;10.83;;
8247;SDS011;4164;49.844;8.830;2022-12-16T05:38:57;27.70;;;11.73;;
8247;SDS011;4164;49.844;8.830;2022-12-16T05:41:41;31.23;;;13.47;;
8247;SDS011;4164;49.844;8.830;2022-12-16T05:44:25;25.63;;;12.13;;
8247;SDS011;4164;49.844;8.830;2022-12-16T05:47:09;34.37;;;13.17;;
8247;SDS011;4164;49.844;8.830;2022-12-16T05:49:55;57.10;;;14.90;;
8247;SDS011;4164;49.844;8.830;2022-12-16T05:52:39;66.57;;;15.20;;
8247;SDS011;4164;49.844;8.830;2022-12-16T05:55:30;29.70;;;13.27;;
8247;SDS011;4164;49.844;8.830;2022-12-16T05:58:15;22.27;;;10.40;;
8247;SDS011;4164;49.844;8.830;2022-12-16T06:00:59;23.60;;;10.67;;
8247;SDS011;4164;49.844;8.830;2022-12-16T06:03:43;26.53;;;10.70;;
8247;SDS011;4164;49.844;8.830;2022-12-16T06:06:27;37.07;;;14.60;;
8247;SDS011;4164;49.844;8.830;2022-12-16T06:09:11;25.27;;;11.37;;
8247;SDS011;4164;49.844;8.830;2022-12-16T06:11:55;29.37;;;11.23;;
8247;SDS011;4164;49.844;8.830;2022-12-16T06:14:39;25.90;;;11.67;;
8247;SDS011;4164;49.844;8.830;2022-12-16T06:17:23;40.67;;;14.43;;
8247;SDS011;4164;49.844;8.830;2022-12-16T06:20:07;32.33;;;12.33;;
8247;SDS011;4164;49.844;8.830;2022-12-16T06:22:51;30.97;;;12.90;;
8247;SDS011;4164;49.844;8.830;2022-12-16T06:25:36;32.70;;;12.83;;
8247;SDS011;4164;49.844;8.830;2022-12-16T06:28:20;25.17;;;11.43;;
8247;SDS011;4164;49.844;8.830;2022-12-16T06:31:15;33.07;;;12.97;;
8247;SDS011;4164;49.844;8.830;2022-12-16T06:33:59;33.53;;;13.00;;
8247;SDS011;4164;49.844;8.830;2022-12-16T06:36:43;30.60;;;13.70;;
8247;SDS011;4164;49.844;8.830;2022-12-16T06:39:27;26.80;;;11.90;;
8247;SDS011;4164;49.844;8.830;2022-12-16T06:42:11;34.27;;;13.33;;
8247;SDS011;4164;49.844;8.830;2022-12-16T06:44:55;25.97;;;11.20;;
8247;SDS011;4164;49.844;8.830;2022-12-16T06:47:41;30.67;;;11.43;;
8247;SDS011;4164;49.844;8.830;2022-12-16T06:50:25;20.23;;;10.20;;
8247;SDS011;4164;49.844;8.830;2022-12-16T06:53:09;23.87;;;10.63;;
8247;SDS011;4164;49.844;8.830;2022-12-16T06:55:53;22.07;;;10.97;;
8247;SDS011;4164;49.844;8.830;2022-12-16T06:58:37;36.30;;;13.30;;
8247;SDS011;4164;49.844;8.830;2022-12-16T07:01:21;30.30;;;12.60;;
8247;SDS011;4164;49.844;8.830;2022-12-16T07:04:05;31.17;;;11.67;;
8247;SDS011;4164;49.844;8.830;2022-12-16T07:06:49;27.87;;;12.73;;
8247;SDS011;4164;49.844;8.830;2022-12-16T07:09:33;23.80;;;11.10;;
8247;SDS011;4164;49.844;8.830;2022-12-16T07:12:17;24.47;;;10.57;;
8247;SDS011;4164;49.844;8.830;2022-12-16T07:15:01;39.90;;;15.63;;
8247;SDS011;4164;49.844;8.830;2022-12-16T07:17:46;67.63;;;22.73;;
8247;SDS011;4164;49.844;8.830;2022-12-16T07:20:30;68.97;;;21.83;;
8247;SDS011;4164;49.844;8.830;2022-12-16T07:23:14;54.27;;;19.70;;
8247;SDS011;4164;49.844;8.830;2022-12-16T07:25:58;40.50;;;17.20;;
8247;SDS011;4164;49.844;8.830;2022-12-16T07:28:42;31.13;;;16.33;;
8247;SDS011;4164;49.844;8.830;2022-12-16T07:31:26;59.37;;;18.37;;
8247;SDS011;4164;49.844;8.830;2022-12-16T07:34:10;36.50;;;13.70;;
8247;SDS011;4164;49.844;8.830;2022-12-16T07:36:54;44.30;;;18.30;;
8247;SDS011;4164;49.844;8.830;2022-12-16T07:39:39;59.00;;;22.87;;
8247;SDS011;4164;49.844;8.830;2022-12-16T07:42:23;42.97;;;19.07;;
8247;SDS011;4164;49.844;8.830;2022-12-16T07:45:07;61.07;;;17.33;;
8247;SDS011;4164;49.844;8.830;2022-12-16T07:47:52;35.10;;;15.17;;
8247;SDS011;4164;49.844;8.830;2022-12-16T07:50:36;28.97;;;12.80;;
8247;SDS011;4164;49.844;8.830;2022-12-16T07:53:21;33.97;;;13.80;;
8247;SDS011;4164;49.844;8.830;2022-12-16T07:56:05;19.33;;;10.73;;
8247;SDS011;4164;49.844;8.830;2022-12-16T07:58:50;24.13;;;12.03;;
8247;SDS011;4164;49.844;8.830;2022-12-16T08:01:34;37.20;;;14.27;;
8247;SDS011;4164;49.844;8.830;2022-12-16T08:04:18;49.97;;;14.10;;
8247;SDS011;4164;49.844;8.830;2022-12-16T08:07:02;33.87;;;13.47;;
8247;SDS011;4164;49.844;8.830;2022-12-16T08:09:46;42.43;;;15.73;;
8247;SDS011;4164;49.844;8.830;2022-12-16T08:12:30;28.03;;;12.87;;
8247;SDS011;4164;49.844;8.830;2022-12-16T08:15:14;30.67;;;13.00;;
8247;SDS011;4164;49.844;8.830;2022-12-16T08:17:58;27.90;;;12.10;;
8247;SDS011;4164;49.844;8.830;2022-12-16T08:20:42;24.63;;;10.83;;
8247;SDS011;4164;49.844;8.830;2022-12-16T08:23:27;24.40;;;11.23;;
8247;SDS011;4164;49.844;8.830;2022-12-16T08:26:11;21.60;;;10.20;;
8247;SDS011;4164;49.844;8.830;2022-12-16T08:28:55;23.50;;;10.67;;
8247;SDS011;4164;49.844;8.830;2022-12-16T08:31:39;23.60;;;10.90;;
8247;SDS011;4164;49.844;8.830;2022-12-16T08:34:24;21.27;;;9.40;;
8247;SDS011;4164;49.844;8.830;2022-12-16T08:37:08;22.53;;;10.67;;
8247;SDS011;4164;49.844;8.830;2022-12-16T08:39:52;44.83;;;14.60;;
8247;SDS011;4164;49.844;8.830;2022-12-16T08:42:36;28.20;;;12.17;;
8247;SDS011;4164;49.844;8.830;2022-12-16T08:45:20;20.53;;;10.40;;
8247;SDS011;4164;49.844;8.830;2022-12-16T08:48:04;21.93;;;10.07;;
8247;SDS011;4164;49.844;8.830;2022-12-16T08:50:49;24.13;;;9.97;;
8247;SDS011;4164;49.844;8.830;2022-12-16T08:53:33;21.67;;;10.60;;
8247;SDS011;4164;49.844;8.830;2022-12-16T08:56:17;21.33;;;10.47;;
8247;SDS011;4164;49.844;8.830;2022-12-16T08:59:01;23.93;;;10.83;;
8247;SDS011;4164;49.844;8.830;2022-12-16T09:02:01;23.73;;;11.20;;
8247;SDS011;4164;49.844;8.830;2022-12-16T09:04:46;23.07;;;11.77;;
8247;SDS011;4164;49.844;8.830;2022-12-16T09:07:30;27.43;;;12.60;;
8247;SDS011;4164;49.844;8.830;2022-12-16T09:10:14;24.73;;;12.63;;
8247;SDS011;4164;49.844;8.830;2022-12-16T09:13:05;38.93;;;16.30;;
8247;SDS011;4164;49.844;8.830;2022-12-16T09:15:51;36.60;;;17.83;;
8247;SDS011;4164;49.844;8.830;2022-12-16T09:18:35;33.97;;;15.30;;
8247;SDS011;4164;49.844;8.830;2022-12-16T09:21:19;23.20;;;11.87;;
8247;SDS011;4164;49.844;8.830;2022-12-16T09:24:03;30.60;;;11.67;;
8247;SDS011;4164;49.844;8.830;2022-12-16T09:26:47;24.47;;;12.43;;
8247;SDS011;4164;49.844;8.830;2022-12-16T09:29:31;21.37;;;12.53;;
8247;SDS011;4164;49.844;8.830;2022-12-16T09:32:15;21.87;;;11.63;;
8247;SDS011;4164;49.844;8.830;2022-12-16T09:34:59;21.63;;;11.57;;
8247;SDS011;4164;49.844;8.830;2022-12-16T09:37:46;22.97;;;10.87;;
8247;SDS011;4164;49.844;8.830;2022-12-16T09:40:31;21.37;;;10.83;;
8247;SDS011;4164;49.844;8.830;2022-12-16T09:46:24;20.77;;;11.50;;
8247;SDS011;4164;49.844;8.830;2022-12-16T09:49:42;19.57;;;10.90;;
8247;SDS011;4164;49.844;8.830;2022-12-16T09:52:43;30.87;;;14.73;;
8247;SDS011;4164;49.844;8.830;2022-12-16T09:55:37;26.13;;;12.53;;
8247;SDS011;4164;49.844;8.830;2022-12-16T09:58:24;17.77;;;10.40;;
8247;SDS011;4164;49.844;8.830;2022-12-16T10:01:12;25.53;;;11.93;;
8247;SDS011;4164;49.844;8.830;2022-12-16T10:03:57;20.93;;;12.37;;
8247;SDS011;4164;49.844;8.830;2022-12-16T10:06:48;21.20;;;11.03;;
8247;SDS011;4164;49.844;8.830;2022-12-16T10:15:44;18.77;;;11.10;;
8247;SDS011;4164;49.844;8.830;2022-12-16T10:18:50;17.27;;;10.77;;
8247;SDS011;4164;49.844;8.830;2022-12-16T10:28:16;17.87;;;11.00;;
8247;SDS011;4164;49.844;8.830;2022-12-16T10:31:20;21.70;;;12.87;;
8247;SDS011;4164;49.844;8.830;2022-12-16T10:34:08;18.37;;;10.73;;
8247;SDS011;4164;49.844;8.830;2022-12-16T10:36:56;21.23;;;11.57;;
8247;SDS011;4164;49.844;8.830;2022-12-16T10:39:41;18.17;;;10.50;;
8247;SDS011;4164;49.844;8.830;2022-12-16T10:42:32;17.37;;;10.33;;
8247;SDS011;4164;49.844;8.830;2022-12-16T10:48:10;15.87;;;10.10;;
8247;SDS011;4164;49.844;8.830;2022-12-16T10:50:54;14.23;;;9.83;;
8247;SDS011;4164;49.844;8.830;2022-12-16T10:53:38;12.97;;;9.47;;
8247;SDS011;4164;49.844;8.830;2022-12-16T10:59:40;17.40;;;10.23;;
8247;SDS011;4164;49.844;8.830;2022-12-16T11:02:25;14.13;;;10.33;;
8247;SDS011;4164;49.844;8.830;2022-12-16T11:05:31;16.30;;;11.40;;
8247;SDS011;4164;49.844;8.830;2022-12-16T11:08:38;16.03;;;9.97;;
8247;SDS011;4164;49.844;8.830;2022-12-16T11:11:25;15.43;;;9.93;;
8247;SDS011;4164;49.844;8.830;2022-12-16T11:14:21;18.57;;;10.90;;
8247;SDS011;4164;49.844;8.830;2022-12-16T11:17:11;17.53;;;10.13;;
8247;SDS011;4164;49.844;8.830;2022-12-16T11:26:11;16.80;;;10.57;;
8247;SDS011;4164;49.844;8.830;2022-12-16T11:29:01;15.70;;;10.43;;
8247;SDS011;4164;49.844;8.830;2022-12-16T11:31:50;14.47;;;10.70;;
8247;SDS011;4164;49.844;8.830;2022-12-16T11:34:50;16.00;;;10.93;;
8247;SDS011;4164;49.844;8.830;2022-12-16T11:37:37;15.00;;;10.97;;
8247;SDS011;4164;49.844;8.830;2022-12-16T11:40:22;16.87;;;11.13;;
8247;SDS011;4164;49.844;8.830;2022-12-16T11:43:07;16.53;;;10.80;;
8247;SDS011;4164;49.844;8.830;2022-12-16T11:45:53;16.33;;;10.87;;
8247;SDS011;4164;49.844;8.830;2022-12-16T11:48:49;17.70;;;11.00;;
8247;SDS011;4164;49.844;8.830;2022-12-16T11:51:40;18.83;;;11.53;;
8247;SDS011;4164;49.844;8.830;2022-12-16T11:54:32;20.10;;;10.63;;
8247;SDS011;4164;49.844;8.830;2022-12-16T11:57:24;15.73;;;9.90;;
8247;SDS011;4164;49.844;8.830;2022-12-16T12:00:18;15.50;;;10.30;;
8247;SDS011;4164;49.844;8.830;2022-12-16T12:03:15;16.70;;;10.87;;
8247;SDS011;4164;49.844;8.830;2022-12-16T12:09:00;16.60;;;11.23;;
8247;SDS011;4164;49.844;8.830;2022-12-16T12:11:57;15.20;;;10.57;;
8247;SDS011;4164;49.844;8.830;2022-12-16T12:21:25;17.23;;;10.60;;
8247;SDS011;4164;49.844;8.830;2022-12-16T12:27:17;17.30;;;10.77;;
8247;SDS011;4164;49.844;8.830;2022-12-16T12:30:26;15.73;;;10.40;;
8247;SDS011;4164;49.844;8.830;2022-12-16T12:36:24;19.77;;;11.37;;
8247;SDS011;4164;49.844;8.830;2022-12-16T12:39:47;15.97;;;9.93;;
8247;SDS011;4164;49.844;8.830;2022-12-16T12:48:43;19.83;;;10.70;;
8247;SDS011;4164;49.844;8.830;2022-12-16T12:58:01;13.80;;;8.70;;
8247;SDS011;4164;49.844;8.830;2022-12-16T13:00:49;21.20;;;10.10;;
8247;SDS011;4164;49.844;8.830;2022-12-16T13:03:41;18.63;;;11.03;;
8247;SDS011;4164;49.844;8.830;2022-12-16T13:06:34;18.30;;;10.00;;
8247;SDS011;4164;49.844;8.830;2022-12-16T13:20:49;17.60;;;8.73;;
8247;SDS011;4164;49.844;8.830;2022-12-16T13:23:37;16.80;;;9.97;;
8247;SDS011;4164;49.844;8.830;2022-12-16T13:26:24;14.73;;;9.03;;
8247;SDS011;4164;49.844;8.830;2022-12-16T13:35:13;17.03;;;10.07;;
8247;SDS011;4164;49.844;8.830;2022-12-16T13:38:05;17.13;;;9.20;;
8247;SDS011;4164;49.844;8.830;2022-12-16T13:41:03;15.63;;;9.47;;
8247;SDS011;4164;49.844;8.830;2022-12-16T13:43:53;18.33;;;10.27;;
8247;SDS011;4164;49.844;8.830;2022-12-16T13:53:04;17.73;;;9.60;;
8247;SDS011;4164;49.844;8.830;2022-12-16T13:58:37;17.33;;;9.60;;
8247;SDS011;4164;49.844;8.830;2022-12-16T14:01:35;15.87;;;9.30;;
8247;SDS011;4164;49.844;8.830;2022-12-16T14:04:42;14.80;;;8.63;;
8247;SDS011;4164;49.844;8.830;2022-12-16T14:07:29;15.50;;;8.47;;
8247;SDS011;4164;49.844;8.830;2022-12-16T14:10:27;15.07;;;8.63;;
8247;SDS011;4164;49.844;8.830;2022-12-16T14:13:15;16.77;;;9.50;;
8247;SDS011;4164;49.844;8.830;2022-12-16T14:19:25;19.37;;;11.10;;
8247;SDS011;4164;49.844;8.830;2022-12-16T14:25:13;23.73;;;13.63;;
8247;SDS011;4164;49.844;8.830;2022-12-16T14:27:59;22.03;;;12.13;;
8247;SDS011;4164;49.844;8.830;2022-12-16T14:30:44;25.17;;;13.53;;
8247;SDS011;4164;49.844;8.830;2022-12-16T14:33:28;26.70;;;14.33;;
8247;SDS011;4164;49.844;8.830;2022-12-16T14:36:23;35.93;;;16.70;;
8247;SDS011;4164;49.844;8.830;2022-12-16T14:39:12;24.57;;;14.27;;
8247;SDS011;4164;49.844;8.830;2022-12-16T14:42:13;26.60;;;14.13;;
8247;SDS011;4164;49.844;8.830;2022-12-16T14:45:03;25.33;;;13.03;;
8247;SDS011;4164;49.844;8.830;2022-12-16T14:47:48;39.10;;;17.43;;
8247;SDS011;4164;49.844;8.830;2022-12-16T14:50:32;25.67;;;13.53;;
8247;SDS011;4164;49.844;8.830;2022-12-16T14:53:17;29.53;;;17.20;;
8247;SDS011;4164;49.844;8.830;2022-12-16T14:56:20;26.73;;;15.93;;
8247;SDS011;4164;49.844;8.830;2022-12-16T14:59:25;31.30;;;16.80;;
8247;SDS011;4164;49.844;8.830;2022-12-16T15:05:12;25.87;;;15.10;;
8247;SDS011;4164;49.844;8.830;2022-12-16T15:08:00;27.43;;;16.13;;
8247;SDS011;4164;49.844;8.830;2022-12-16T15:10:45;40.03;;;15.23;;
8247;SDS011;4164;49.844;8.830;2022-12-16T15:13:29;32.13;;;15.50;;
8247;SDS011;4164;49.844;8.830;2022-12-16T15:16:18;29.50;;;16.30;;
8247;SDS011;4164;49.844;8.830;2022-12-16T15:19:10;30.13;;;15.33;;
8247;SDS011;4164;49.844;8.830;2022-12-16T15:22:01;41.80;;;21.07;;
8247;SDS011;4164;49.844;8.830;2022-12-16T15:24:45;30.17;;;17.93;;
8247;SDS011;4164;49.844;8.830;2022-12-16T15:27:33;31.57;;;16.90;;
8247;SDS011;4164;49.844;8.830;2022-12-16T15:30:39;41.70;;;20.20;;
8247;SDS011;4164;49.844;8.830;2022-12-16T15:33:28;45.33;;;21.30;;
8247;SDS011;4164;49.844;8.830;2022-12-16T15:39:21;37.20;;;17.90;;
8247;SDS011;4164;49.844;8.830;2022-12-16T15:42:21;36.73;;;18.33;;
8247;SDS011;4164;49.844;8.830;2022-12-16T15:45:22;32.70;;;16.47;;
8247;SDS011;4164;49.844;8.830;2022-12-16T15:48:11;33.97;;;17.93;;
8247;SDS011;4164;49.844;8.830;2022-12-16T15:51:02;46.60;;;22.63;;
8247;SDS011;4164;49.844;8.830;2022-12-16T15:53:45;47.73;;;25.70;;
8247;SDS011;4164;49.844;8.830;2022-12-16T15:56:44;32.17;;;18.33;;
8247;SDS011;4164;49.844;8.830;2022-12-16T15:59:30;32.03;;;17.33;;
8247;SDS011;4164;49.844;8.830;2022-12-16T16:05:00;26.03;;;15.73;;
8247;SDS011;4164;49.844;8.830;2022-12-16T16:07:44;36.37;;;18.53;;
8247;SDS011;4164;49.844;8.830;2022-12-16T16:10:28;47.63;;;23.17;;
8247;SDS011;4164;49.844;8.830;2022-12-16T16:13:13;43.70;;;22.83;;
8247;SDS011;4164;49.844;8.830;2022-12-16T16:15:57;29.50;;;18.10;;
8247;SDS011;4164;49.844;8.830;2022-12-16T16:18:41;28.93;;;15.40;;
8247;SDS011;4164;49.844;8.830;2022-12-16T16:21:27;34.13;;;16.97;;
8247;SDS011;4164;49.844;8.830;2022-12-16T16:24:12;30.00;;;14.63;;
8247;SDS011;4164;49.844;8.830;2022-12-16T16:26:57;30.97;;;14.83;;
8247;SDS011;4164;49.844;8.830;2022-12-16T16:29:42;27.43;;;14.53;;
8247;SDS011;4164;49.844;8.830;2022-12-16T16:32:26;45.00;;;16.87;;
8247;SDS011;4164;49.844;8.830;2022-12-16T16:35:10;24.27;;;14.07;;
8247;SDS011;4164;49.844;8.830;2022-12-16T16:37:55;21.57;;;13.17;;
8247;SDS011;4164;49.844;8.830;2022-12-16T16:40:40;25.47;;;13.17;;
8247;SDS011;4164;49.844;8.830;2022-12-16T16:43:25;28.23;;;15.70;;
8247;SDS011;4164;49.844;8.830;2022-12-16T16:49:04;29.93;;;15.77;;
8247;SDS011;4164;49.844;8.830;2022-12-16T16:51:52;39.47;;;20.57;;
8247;SDS011;4164;49.844;8.830;2022-12-16T16:54:36;35.97;;;19.57;;
8247;SDS011;4164;49.844;8.830;2022-12-16T16:57:20;29.90;;;16.83;;
8247;SDS011;4164;49.844;8.830;2022-12-16T17:00:05;27.87;;;14.37;;
8247;SDS011;4164;49.844;8.830;2022-12-16T17:02:49;41.87;;;18.40;;
8247;SDS011;4164;49.844;8.830;2022-12-16T17:05:33;30.53;;;17.03;;
8247;SDS011;4164;49.844;8.830;2022-12-16T17:08:17;35.93;;;17.97;;
8247;SDS011;4164;49.844;8.830;2022-12-16T17:11:01;31.03;;;16.80;;
8247;SDS011;4164;49.844;8.830;2022-12-16T17:13:45;63.67;;;21.30;;
8247;SDS011;4164;49.844;8.830;2022-12-16T17:16:29;33.63;;;17.97;;
8247;SDS011;4164;49.844;8.830;2022-12-16T17:19:13;37.60;;;20.57;;
8247;SDS011;4164;49.844;8.830;2022-12-16T17:21:57;32.30;;;18.00;;
8247;SDS011;4164;49.844;8.830;2022-12-16T17:24:41;42.03;;;21.30;;
8247;SDS011;4164;49.844;8.830;2022-12-16T17:27:25;57.50;;;28.17;;
8247;SDS011;4164;49.844;8.830;2022-12-16T17:30:12;55.37;;;25.93;;
8247;SDS011;4164;49.844;8.830;2022-12-16T17:33:06;59.13;;;27.53;;
8247;SDS011;4164;49.844;8.830;2022-12-16T17:35:50;68.23;;;25.20;;
8247;SDS011;4164;49.844;8.830;2022-12-16T17:38:38;46.87;;;23.43;;
8247;SDS011;4164;49.844;8.830;2022-12-16T17:41:25;46.60;;;22.57;;
8247;SDS011;4164;49.844;8.830;2022-12-16T17:44:10;36.90;;;19.80;;
8247;SDS011;4164;49.844;8.830;2022-12-16T17:46:55;37.10;;;19.77;;
8247;SDS011;4164;49.844;8.830;2022-12-16T17:49:39;39.30;;;19.53;;
8247;SDS011;4164;49.844;8.830;2022-12-16T17:52:23;44.50;;;19.53;;
8247;SDS011;4164;49.844;8.830;2022-12-16T17:55:07;35.60;;;19.40;;
8247;SDS011;4164;49.844;8.830;2022-12-16T17:58:02;41.90;;;19.63;;
8247;SDS011;4164;49.844;8.830;2022-12-16T18:00:59;41.03;;;18.53;;
8247;SDS011;4164;49.844;8.830;2022-12-16T18:03:47;39.63;;;19.13;;
8247;SDS011;4164;49.844;8.830;2022-12-16T18:06:32;49.20;;;20.87;;
8247;SDS011;4164;49.844;8.830;2022-12-16T18:09:16;43.17;;;20.07;;
8247;SDS011;4164;49.844;8.830;2022-12-16T18:12:00;44.27;;;18.67;;
8247;SDS011;4164;49.844;8.830;2022-12-16T18:14:44;41.27;;;18.27;;
8247;SDS011;4164;49.844;8.830;2022-12-16T18:17:28;55.53;;;23.83;;
8247;SDS011;4164;49.844;8.830;2022-12-16T18:20:12;73.00;;;26.70;;
8247;SDS011;4164;49.844;8.830;2022-12-16T18:22:56;92.57;;;31.90;;